Time;durP1;ratioP1;P1;durP2;ratioP2;P2;SDS_P1;SDS_P2;PMS_P1;PMS_P2;Temp;Humidity;BMP_temperature;BMP_pressure;BME280_temperature;BME280_humidity;BME280_pressure;Samples;Min_cycle;Max_cycle;Signal;HPM_P1;HPM_P2
2023/04/07 00:00:05;;;;;;;10.68;7.13;;;;;;;;;;5022185;28;20552;-82
2023/04/07 00:02:32;;;;;;;13.65;8.35;;;;;;;;;;5025062;28;20058;-82
2023/04/07 00:05:01;;;;;;;13.40;7.82;;;;;;;;;;5021821;28;20049;-82
2023/04/07 00:07:28;;;;;;;10.88;7.70;;;;;;;;;;5013845;28;20574;-81
2023/04/07 00:09:54;;;;;;;12.77;8.38;;;;;;;;;;5029926;28;20495;-82
2023/04/07 00:12:22;;;;;;;15.23;8.13;;;;;;;;;;5028536;28;20419;-83
2023/04/07 00:14:49;;;;;;;13.40;8.30;;;;;;;;;;5023591;28;20500;-82
2023/04/07 00:17:16;;;;;;;13.90;8.38;;;;;;;;;;5021378;28;20485;-82
2023/04/07 00:19:43;;;;;;;12.20;7.32;;;;;;;;;;5033055;28;20057;-83
2023/04/07 00:22:10;;;;;;;10.65;7.32;;;;;;;;;;5033405;28;20053;-83
2023/04/07 00:24:36;;;;;;;11.43;7.28;;;;;;;;;;5033617;28;20136;-81
2023/04/07 00:27:03;;;;;;;10.73;7.10;;;;;;;;;;5033095;28;20124;-82
2023/04/07 00:29:31;;;;;;;12.50;7.30;;;;;;;;;;5033506;28;20464;-81
2023/04/07 00:31:58;;;;;;;13.00;7.28;;;;;;;;;;5034631;28;20061;-82
2023/04/07 00:34:24;;;;;;;12.05;7.25;;;;;;;;;;5033840;28;20136;-82
2023/04/07 00:36:51;;;;;;;12.18;7.28;;;;;;;;;;5033256;28;20128;-82
2023/04/07 00:39:18;;;;;;;14.27;7.13;;;;;;;;;;5033340;28;20064;-83
2023/04/07 00:41:45;;;;;;;11.55;7.82;;;;;;;;;;5034026;28;20518;-83
2023/04/07 00:44:12;;;;;;;11.13;6.93;;;;;;;;;;5033596;28;20045;-82
2023/04/07 00:46:41;;;;;;;11.13;7.05;;;;;;;;;;5035116;28;20045;-84
2023/04/07 00:49:08;;;;;;;12.45;7.18;;;;;;;;;;5040771;28;20644;-83
2023/04/07 00:51:35;;;;;;;12.48;7.03;;;;;;;;;;5038191;28;20113;-82
2023/04/07 00:54:02;;;;;;;13.00;6.90;;;;;;;;;;5038374;28;20041;-81
2023/04/07 00:56:29;;;;;;;12.07;7.13;;;;;;;;;;5046231;28;20049;-83
2023/04/07 00:58:56;;;;;;;12.10;6.65;;;;;;;;;;5057469;28;20050;-81
2023/04/07 01:01:26;;;;;;;13.20;7.55;;;;;;;;;;5059197;28;20056;-81
2023/04/07 01:04:01;;;;;;;13.15;7.15;;;;;;;;;;5056943;28;20064;-81
2023/04/07 01:06:33;;;;;;;13.40;7.45;;;;;;;;;;5052735;28;20084;-83
2023/04/07 01:09:05;;;;;;;11.48;6.10;;;;;;;;;;5047633;28;20081;-82
2023/04/07 01:11:38;;;;;;;13.30;7.18;;;;;;;;;;5040544;28;20084;-83
2023/04/07 01:14:06;;;;;;;11.90;6.90;;;;;;;;;;5038378;28;20052;-82
2023/04/07 01:16:37;;;;;;;11.27;6.80;;;;;;;;;;5038197;28;20060;-82
2023/04/07 01:19:15;;;;;;;12.38;6.60;;;;;;;;;;5028933;28;20046;-82
2023/04/07 01:21:45;;;;;;;11.27;6.45;;;;;;;;;;5018432;28;20068;-83
2023/04/07 01:24:34;;;;;;;11.60;6.50;;;;;;;;;;5017992;28;20416;-82
2023/04/07 01:27:14;;;;;;;11.18;6.45;;;;;;;;;;5018015;28;20053;-83
2023/04/07 01:29:46;;;;;;;10.35;6.47;;;;;;;;;;5017295;28;20045;-82
2023/04/07 01:32:15;;;;;;;10.48;6.43;;;;;;;;;;5017633;28;20056;-82
2023/04/07 01:34:42;;;;;;;14.25;6.50;;;;;;;;;;5017130;28;20046;-82
2023/04/07 01:37:09;;;;;;;11.63;6.45;;;;;;;;;;5016237;28;20048;-82
2023/04/07 01:39:38;;;;;;;10.27;6.00;;;;;;;;;;5016729;28;20042;-82
2023/04/07 01:42:06;;;;;;;9.18;5.40;;;;;;;;;;5016613;28;20077;-81
2023/04/07 01:44:33;;;;;;;12.88;7.03;;;;;;;;;;5016321;28;20113;-82
2023/04/07 01:47:02;;;;;;;11.70;6.15;;;;;;;;;;5016094;28;20129;-81
2023/04/07 01:49:30;;;;;;;9.70;6.00;;;;;;;;;;5016531;28;20054;-81
2023/04/07 01:51:58;;;;;;;11.93;6.22;;;;;;;;;;5016803;28;20053;-81
2023/04/07 01:54:26;;;;;;;11.68;5.72;;;;;;;;;;5017162;28;20056;-80
2023/04/07 01:56:52;;;;;;;9.48;6.05;;;;;;;;;;5017190;28;20068;-82
2023/04/07 01:59:19;;;;;;;10.60;5.90;;;;;;;;;;5015214;28;20046;-83
2023/04/07 02:01:46;;;;;;;10.40;5.63;;;;;;;;;;5016934;28;20101;-83
2023/04/07 02:04:21;;;;;;;10.73;5.40;;;;;;;;;;5015696;28;20432;-82
2023/04/07 02:06:52;;;;;;;12.38;7.38;;;;;;;;;;5016763;28;20132;-82
2023/04/07 02:09:21;;;;;;;9.25;5.32;;;;;;;;;;5016674;28;20049;-83
2023/04/07 02:11:49;;;;;;;10.07;5.40;;;;;;;;;;5016850;28;20049;-83
2023/04/07 02:14:18;;;;;;;8.90;6.00;;;;;;;;;;5016788;28;20104;-83
2023/04/07 02:16:46;;;;;;;8.63;4.82;;;;;;;;;;5017199;28;20449;-82
2023/04/07 02:19:14;;;;;;;8.80;5.47;;;;;;;;;;5017364;28;20050;-82
2023/04/07 02:21:42;;;;;;;9.63;4.75;;;;;;;;;;5017456;28;20080;-83
2023/04/07 02:24:11;;;;;;;10.00;5.05;;;;;;;;;;5017228;28;20054;-82
2023/04/07 02:26:38;;;;;;;7.30;4.93;;;;;;;;;;5016183;28;20065;-81
2023/04/07 02:29:05;;;;;;;10.57;5.10;;;;;;;;;;5016274;28;20072;-82
2023/04/07 02:31:32;;;;;;;9.52;5.43;;;;;;;;;;5017366;28;20053;-83
2023/04/07 02:33:59;;;;;;;8.55;4.60;;;;;;;;;;5016831;28;20069;-83
2023/04/07 02:36:27;;;;;;;10.45;4.95;;;;;;;;;;5023144;28;20077;-82
2023/04/07 02:38:53;;;;;;;8.35;4.30;;;;;;;;;;5027520;28;20049;-82
2023/04/07 02:41:20;;;;;;;7.68;4.85;;;;;;;;;;5028614;28;20042;-82
2023/04/07 02:43:46;;;;;;;8.50;4.35;;;;;;;;;;5031428;28;20095;-81
2023/04/07 02:46:13;;;;;;;9.15;4.60;;;;;;;;;;5033987;28;20046;-82
2023/04/07 02:48:40;;;;;;;8.82;3.97;;;;;;;;;;5034570;28;20078;-80
2023/04/07 02:51:06;;;;;;;8.77;4.50;;;;;;;;;;5034724;28;20050;-82
2023/04/07 02:53:35;;;;;;;9.52;4.40;;;;;;;;;;5034504;28;20029;-81
2023/04/07 02:56:01;;;;;;;9.13;4.25;;;;;;;;;;5049799;28;20049;-82
2023/04/07 02:58:28;;;;;;;7.45;3.90;;;;;;;;;;5054425;28;20060;-82
2023/04/07 03:00:55;;;;;;;8.77;4.40;;;;;;;;;;5054111;28;20037;-83
2023/04/07 03:03:21;;;;;;;7.85;4.18;;;;;;;;;;5035554;28;20069;-83
2023/04/07 03:05:54;;;;;;;7.97;3.58;;;;;;;;;;5035794;28;20049;-83
2023/04/07 03:08:20;;;;;;;10.23;4.20;;;;;;;;;;5035494;28;20055;-83
2023/04/07 03:10:48;;;;;;;7.57;3.85;;;;;;;;;;5034580;28;20099;-83
2023/04/07 03:13:18;;;;;;;8.30;4.50;;;;;;;;;;5035598;28;20583;-83
2023/04/07 03:15:44;;;;;;;8.90;4.55;;;;;;;;;;5034894;28;20103;-83
2023/04/07 03:18:11;;;;;;;8.32;4.30;;;;;;;;;;5035273;28;20046;-83
2023/04/07 03:20:40;;;;;;;9.60;4.32;;;;;;;;;;5034850;28;20487;-82
2023/04/07 03:23:07;;;;;;;8.80;4.20;;;;;;;;;;5035014;28;20053;-83
2023/04/07 03:25:34;;;;;;;7.85;4.20;;;;;;;;;;5034978;28;20132;-82
2023/04/07 03:28:02;;;;;;;6.93;3.85;;;;;;;;;;5034889;28;20045;-82
2023/04/07 03:30:29;;;;;;;8.30;4.68;;;;;;;;;;5033348;28;20140;-82
2023/04/07 03:32:55;;;;;;;8.20;4.57;;;;;;;;;;5032633;28;20045;-82
2023/04/07 03:35:22;;;;;;;7.35;4.15;;;;;;;;;;5032517;28;20041;-82
2023/04/07 03:37:49;;;;;;;9.68;4.93;;;;;;;;;;5033231;28;20558;-81
2023/04/07 03:40:16;;;;;;;7.75;4.13;;;;;;;;;;5034041;28;20045;-81
2023/04/07 03:42:43;;;;;;;9.82;4.80;;;;;;;;;;5034980;28;20049;-82
2023/04/07 03:45:11;;;;;;;9.80;5.38;;;;;;;;;;5034682;28;20731;-82
2023/04/07 03:47:38;;;;;;;9.52;4.65;;;;;;;;;;5041641;28;20052;-82
2023/04/07 03:50:05;;;;;;;9.10;5.03;;;;;;;;;;5034689;28;20128;-82
2023/04/07 03:52:32;;;;;;;9.55;4.97;;;;;;;;;;5034330;28;20052;-82
2023/04/07 03:54:59;;;;;;;9.60;5.65;;;;;;;;;;5034616;28;20137;-82
2023/04/07 03:57:26;;;;;;;13.35;5.38;;;;;;;;;;5034028;28;20045;-82
2023/04/07 03:59:53;;;;;;;8.00;4.57;;;;;;;;;;5034320;28;20077;-82
2023/04/07 04:02:21;;;;;;;8.23;4.93;;;;;;;;;;5034471;28;20053;-82
2023/04/07 04:04:47;;;;;;;8.57;4.93;;;;;;;;;;5034193;28;20593;-82
2023/04/07 04:07:15;;;;;;;9.68;5.15;;;;;;;;;;5034311;28;20041;-82
2023/04/07 04:09:41;;;;;;;10.15;5.32;;;;;;;;;;5035833;28;20041;-81
2023/04/07 04:12:08;;;;;;;8.90;5.25;;;;;;;;;;5035326;28;20080;-82
2023/04/07 04:14:34;;;;;;;10.52;5.70;;;;;;;;;;5034990;28;20132;-82
2023/04/07 04:17:01;;;;;;;12.63;5.68;;;;;;;;;;5034433;28;20117;-82
2023/04/07 04:19:29;;;;;;;10.25;5.78;;;;;;;;;;5035374;28;20136;-82
2023/04/07 04:21:56;;;;;;;10.27;5.82;;;;;;;;;;5034690;28;20133;-83
2023/04/07 04:24:22;;;;;;;10.52;6.05;;;;;;;;;;5034940;28;20049;-82
2023/04/07 04:26:49;;;;;;;10.00;5.40;;;;;;;;;;5034818;28;20128;-83
2023/04/07 04:29:16;;;;;;;12.27;5.57;;;;;;;;;;5034675;28;20077;-83
2023/04/07 04:31:42;;;;;;;11.50;5.93;;;;;;;;;;5035519;28;20562;-83
2023/04/07 04:34:09;;;;;;;10.25;6.10;;;;;;;;;;5035164;28;20115;-83
2023/04/07 04:36:39;;;;;;;9.95;6.07;;;;;;;;;;5034868;28;20068;-82
2023/04/07 04:39:05;;;;;;;10.35;5.82;;;;;;;;;;5035378;28;20056;-81
2023/04/07 04:41:32;;;;;;;16.35;7.20;;;;;;;;;;5035317;28;20056;-81
2023/04/07 04:43:59;;;;;;;10.35;5.97;;;;;;;;;;5035275;28;20037;-83
2023/04/07 04:46:25;;;;;;;9.65;5.30;;;;;;;;;;5034778;28;20140;-82
2023/04/07 04:48:53;;;;;;;11.13;6.05;;;;;;;;;;5034855;28;20124;-82
2023/04/07 04:51:19;;;;;;;11.80;5.95;;;;;;;;;;5034727;28;20045;-82
2023/04/07 04:53:47;;;;;;;10.60;6.20;;;;;;;;;;5034666;28;20576;-82
2023/04/07 04:56:14;;;;;;;12.77;6.25;;;;;;;;;;5035214;28;20041;-82
2023/04/07 04:58:45;;;;;;;11.93;5.93;;;;;;;;;;5036310;28;20049;-80
2023/04/07 05:01:11;;;;;;;14.35;6.65;;;;;;;;;;5039743;28;20068;-79
2023/04/07 05:03:38;;;;;;;12.23;5.72;;;;;;;;;;5045015;28;20097;-81
2023/04/07 05:06:05;;;;;;;10.45;5.97;;;;;;;;;;5041534;28;20472;-82
2023/04/07 05:08:32;;;;;;;11.35;6.15;;;;;;;;;;5038312;28;20412;-82
2023/04/07 05:11:00;;;;;;;11.15;6.15;;;;;;;;;;5040141;28;20420;-82
2023/04/07 05:13:29;;;;;;;11.35;6.35;;;;;;;;;;5041381;28;20097;-82
2023/04/07 05:15:56;;;;;;;11.15;6.63;;;;;;;;;;5044130;28;20045;-81
2023/04/07 05:18:22;;;;;;;9.45;6.05;;;;;;;;;;5044860;28;20073;-80
2023/04/07 05:20:49;;;;;;;11.85;6.22;;;;;;;;;;5029726;28;20077;-80
2023/04/07 05:23:16;;;;;;;11.13;6.97;;;;;;;;;;5032287;28;20045;-80
2023/04/07 05:25:43;;;;;;;11.77;6.53;;;;;;;;;;5030974;28;20132;-80
2023/04/07 05:28:11;;;;;;;10.32;5.53;;;;;;;;;;5033720;28;20054;-78
2023/04/07 05:30:37;;;;;;;12.00;6.82;;;;;;;;;;5035047;28;20060;-80
2023/04/07 05:33:04;;;;;;;10.27;5.97;;;;;;;;;;5034680;28;20053;-80
2023/04/07 05:35:31;;;;;;;11.35;6.68;;;;;;;;;;5036972;28;20118;-79
2023/04/07 05:37:57;;;;;;;11.50;6.57;;;;;;;;;;5037833;28;20093;-79
2023/04/07 05:40:24;;;;;;;12.82;7.40;;;;;;;;;;5037780;28;20057;-80
2023/04/07 05:42:51;;;;;;;13.10;6.68;;;;;;;;;;5038121;28;20088;-79
2023/04/07 05:45:19;;;;;;;12.48;7.50;;;;;;;;;;5038289;28;20114;-79
2023/04/07 05:47:48;;;;;;;13.38;6.57;;;;;;;;;;5064200;22;20545;-59
2023/04/07 05:50:15;;;;;;;11.63;6.50;;;;;;;;;;5052673;28;20052;-60
2023/04/07 05:52:42;;;;;;;13.70;7.00;;;;;;;;;;5052553;28;20391;-56
2023/04/07 05:55:09;;;;;;;11.68;6.65;;;;;;;;;;5052874;28;20103;-56
2023/04/07 05:57:36;;;;;;;11.45;5.97;;;;;;;;;;5052182;28;20131;-56
2023/04/07 06:00:04;;;;;;;12.35;6.53;;;;;;;;;;5052227;28;20656;-59
2023/04/07 06:02:32;;;;;;;11.27;6.30;;;;;;;;;;5052247;28;20053;-56
2023/04/07 06:04:59;;;;;;;10.63;5.88;;;;;;;;;;5052279;28;20594;-58
2023/04/07 06:07:26;;;;;;;13.70;6.35;;;;;;;;;;5051852;28;20520;-61
2023/04/07 06:09:52;;;;;;;10.95;6.47;;;;;;;;;;5051693;28;20056;-56
2023/04/07 06:12:19;;;;;;;12.63;7.40;;;;;;;;;;5052045;28;20563;-58
2023/04/07 06:14:51;;;;;;;13.25;7.55;;;;;;;;;;5052017;28;20428;-59
2023/04/07 06:17:17;;;;;;;12.55;5.85;;;;;;;;;;5051889;28;20049;-55
2023/04/07 06:19:46;;;;;;;12.82;6.85;;;;;;;;;;5052036;28;20049;-56
2023/04/07 06:22:12;;;;;;;12.25;6.80;;;;;;;;;;5051651;28;20099;-57
2023/04/07 06:24:39;;;;;;;13.18;7.05;;;;;;;;;;5051633;28;20064;-58
2023/04/07 06:27:06;;;;;;;13.23;6.78;;;;;;;;;;5051575;28;20448;-60
2023/04/07 06:29:33;;;;;;;13.88;6.90;;;;;;;;;;5051990;28;20136;-57
2023/04/07 06:32:01;;;;;;;10.98;6.32;;;;;;;;;;5051814;28;20103;-55
2023/04/07 06:34:28;;;;;;;12.15;7.15;;;;;;;;;;5052033;28;20498;-57
2023/04/07 06:36:56;;;;;;;11.43;6.32;;;;;;;;;;5051259;28;20127;-58
2023/04/07 06:39:24;;;;;;;10.50;5.90;;;;;;;;;;5051715;28;20494;-57
2023/04/07 06:41:50;;;;;;;11.35;6.72;;;;;;;;;;5051580;28;20061;-55
2023/04/07 06:44:17;;;;;;;10.88;6.72;;;;;;;;;;5051519;28;20107;-58
2023/04/07 06:46:46;;;;;;;11.52;5.70;;;;;;;;;;5051239;28;20512;-59
2023/04/07 06:49:13;;;;;;;12.02;7.28;;;;;;;;;;5051696;28;20049;-59
2023/04/07 06:51:40;;;;;;;11.07;6.90;;;;;;;;;;5051299;28;20049;-59
2023/04/07 06:54:11;;;;;;;10.68;6.13;;;;;;;;;;5051416;28;20063;-60
2023/04/07 06:56:38;;;;;;;12.55;6.80;;;;;;;;;;5051301;28;20052;-58
2023/04/07 06:59:05;;;;;;;13.35;6.40;;;;;;;;;;5051228;28;20130;-59
2023/04/07 07:01:32;;;;;;;10.32;6.03;;;;;;;;;;5051667;28;20405;-58
2023/04/07 07:03:59;;;;;;;11.93;6.40;;;;;;;;;;5051390;28;20053;-55
2023/04/07 07:06:26;;;;;;;10.30;6.22;;;;;;;;;;5051206;28;20131;-59
2023/04/07 07:08:53;;;;;;;11.52;7.38;;;;;;;;;;5050760;28;20080;-59
2023/04/07 07:11:21;;;;;;;11.63;6.63;;;;;;;;;;5051267;28;20542;-55
2023/04/07 07:13:48;;;;;;;11.45;6.10;;;;;;;;;;5051038;28;20049;-60
2023/04/07 07:16:14;;;;;;;10.23;6.40;;;;;;;;;;5043835;28;20049;-56
2023/04/07 07:18:41;;;;;;;10.52;6.13;;;;;;;;;;5047123;28;20056;-55
2023/04/07 07:21:08;;;;;;;13.80;6.78;;;;;;;;;;5050943;28;20048;-56
2023/04/07 07:23:35;;;;;;;13.20;7.10;;;;;;;;;;5051452;28;20552;-57
2023/04/07 07:26:02;;;;;;;11.57;6.00;;;;;;;;;;5050699;28;20076;-56
2023/04/07 07:28:30;;;;;;;12.48;6.63;;;;;;;;;;5050788;28;20053;-60
2023/04/07 07:30:57;;;;;;;10.13;5.97;;;;;;;;;;5050870;28;20045;-59
2023/04/07 07:33:24;;;;;;;10.23;6.55;;;;;;;;;;5050815;28;20489;-58
2023/04/07 07:35:51;;;;;;;9.93;6.18;;;;;;;;;;5050712;28;20164;-59
2023/04/07 07:38:18;;;;;;;11.10;6.70;;;;;;;;;;5050435;28;20048;-58
2023/04/07 07:40:45;;;;;;;11.52;6.50;;;;;;;;;;5050534;28;20223;-56
2023/04/07 07:43:12;;;;;;;12.15;7.68;;;;;;;;;;5050355;28;20075;-56
2023/04/07 07:45:40;;;;;;;12.45;7.00;;;;;;;;;;5050065;28;20060;-59
2023/04/07 07:48:07;;;;;;;9.82;6.35;;;;;;;;;;5050129;28;20496;-60
2023/04/07 07:50:34;;;;;;;9.85;6.40;;;;;;;;;;5050525;28;20103;-60
2023/04/07 07:53:01;;;;;;;10.40;6.65;;;;;;;;;;5050302;28;20045;-56
2023/04/07 07:55:28;;;;;;;11.27;6.45;;;;;;;;;;5049877;28;20049;-58
2023/04/07 07:57:54;;;;;;;10.00;6.22;;;;;;;;;;5049241;28;20053;-57
2023/04/07 08:00:22;;;;;;;13.38;6.68;;;;;;;;;;5049810;28;20056;-59
2023/04/07 08:02:50;;;;;;;11.23;7.05;;;;;;;;;;5050446;28;20144;-59
2023/04/07 08:05:17;;;;;;;12.95;6.78;;;;;;;;;;5049847;28;20139;-58
2023/04/07 08:07:45;;;;;;;11.27;6.75;;;;;;;;;;5049649;28;20140;-59
2023/04/07 08:10:12;;;;;;;11.15;6.30;;;;;;;;;;5049696;28;20052;-56
2023/04/07 08:12:39;;;;;;;12.50;6.47;;;;;;;;;;5049847;28;20107;-58
2023/04/07 08:15:08;;;;;;;11.30;6.40;;;;;;;;;;5049825;28;20425;-60
2023/04/07 08:17:35;;;;;;;12.07;7.00;;;;;;;;;;5049739;28;20350;-59
2023/04/07 08:20:04;;;;;;;10.20;6.40;;;;;;;;;;5049566;28;20559;-57
2023/04/07 08:22:31;;;;;;;11.68;6.57;;;;;;;;;;5049454;28;20127;-55
2023/04/07 08:24:58;;;;;;;11.63;6.93;;;;;;;;;;5049691;28;20049;-58
2023/04/07 08:27:25;;;;;;;10.13;6.30;;;;;;;;;;5048999;28;20490;-60
2023/04/07 08:29:59;;;;;;;11.85;7.05;;;;;;;;;;5050136;28;20056;-57
2023/04/07 08:32:33;;;;;;;13.55;7.32;;;;;;;;;;5050191;28;20063;-59
2023/04/07 08:35:00;;;;;;;11.18;6.15;;;;;;;;;;5049756;28;20048;-59
2023/04/07 08:37:28;;;;;;;11.32;6.25;;;;;;;;;;5049432;28;20044;-58
2023/04/07 08:39:55;;;;;;;11.23;6.53;;;;;;;;;;5049353;28;20571;-58
2023/04/07 08:42:27;;;;;;;11.05;6.53;;;;;;;;;;5049584;28;20045;-56
2023/04/07 08:44:56;;;;;;;10.82;6.22;;;;;;;;;;5049598;28;20049;-57
2023/04/07 08:47:25;;;;;;;12.02;6.95;;;;;;;;;;5049229;28;20513;-57
2023/04/07 08:49:53;;;;;;;10.68;5.80;;;;;;;;;;5050163;28;20057;-59
2023/04/07 08:52:23;;;;;;;11.30;6.38;;;;;;;;;;5049424;28;20106;-60
2023/04/07 08:54:52;;;;;;;11.57;6.22;;;;;;;;;;5049871;28;20111;-58
2023/04/07 08:57:19;;;;;;;11.73;6.40;;;;;;;;;;5046589;28;20424;-58
2023/04/07 08:59:47;;;;;;;11.23;6.75;;;;;;;;;;5049027;28;20052;-58
2023/04/07 09:02:15;;;;;;;11.10;6.72;;;;;;;;;;5049024;28;20048;-60
2023/04/07 09:04:44;;;;;;;11.50;6.95;;;;;;;;;;5048939;28;20219;-56
2023/04/07 09:07:10;;;;;;;9.85;6.50;;;;;;;;;;5048948;28;20052;-60
2023/04/07 09:09:37;;;;;;;11.25;7.20;;;;;;;;;;5053173;28;20491;-57
2023/04/07 09:12:06;;;;;;;11.02;6.55;;;;;;;;;;5052860;28;20060;-58
2023/04/07 09:14:32;;;;;;;11.02;6.38;;;;;;;;;;5052826;28;20041;-58
2023/04/07 09:17:00;;;;;;;12.25;6.68;;;;;;;;;;5052824;28;20041;-58
2023/04/07 09:19:27;;;;;;;10.45;6.45;;;;;;;;;;5052767;28;20268;-58
2023/04/07 09:21:54;;;;;;;11.00;6.45;;;;;;;;;;5053090;28;20045;-57
2023/04/07 09:24:22;;;;;;;11.88;7.22;;;;;;;;;;5052895;28;20049;-59
2023/04/07 09:26:49;;;;;;;10.88;7.25;;;;;;;;;;5052383;28;20051;-58
2023/04/07 09:29:20;;;;;;;18.17;9.38;;;;;;;;;;5052290;28;20082;-59
2023/04/07 09:31:50;;;;;;;15.05;7.75;;;;;;;;;;5052941;28;20326;-59
2023/04/07 09:34:35;;;;;;;10.45;6.43;;;;;;;;;;5052670;28;20328;-57
2023/04/07 09:37:03;;;;;;;9.85;5.75;;;;;;;;;;5050392;28;20080;-58
2023/04/07 09:39:30;;;;;;;10.23;6.13;;;;;;;;;;5052273;28;20095;-60
2023/04/07 09:41:57;;;;;;;11.77;6.60;;;;;;;;;;5052968;28;20110;-55
2023/04/07 09:44:26;;;;;;;11.30;6.30;;;;;;;;;;5052363;28;20045;-57
2023/04/07 09:46:55;;;;;;;11.32;6.53;;;;;;;;;;5052034;28;20052;-56
2023/04/07 09:49:22;;;;;;;11.27;6.63;;;;;;;;;;5050266;28;20398;-54
2023/04/07 09:51:54;;;;;;;11.25;6.65;;;;;;;;;;5052174;28;20045;-59
2023/04/07 09:54:33;;;;;;;11.32;6.38;;;;;;;;;;5049564;28;20041;-60
2023/04/07 09:57:01;;;;;;;11.32;6.53;;;;;;;;;;5051525;28;20111;-61
2023/04/07 09:59:29;;;;;;;12.20;6.78;;;;;;;;;;5051791;28;20059;-56
2023/04/07 10:01:56;;;;;;;10.10;6.45;;;;;;;;;;5052040;28;20048;-58
2023/04/07 10:04:24;;;;;;;12.50;7.22;;;;;;;;;;5052229;28;20059;-59
2023/04/07 10:06:53;;;;;;;10.77;6.72;;;;;;;;;;5052234;28;20480;-57
2023/04/07 10:09:20;;;;;;;11.88;7.18;;;;;;;;;;5052087;28;20136;-56
2023/04/07 10:11:48;;;;;;;10.85;6.63;;;;;;;;;;5052292;28;20061;-61
2023/04/07 10:14:16;;;;;;;9.52;6.18;;;;;;;;;;5052585;28;20048;-57
2023/04/07 10:16:46;;;;;;;11.05;6.30;;;;;;;;;;5052291;28;20095;-68
2023/04/07 10:19:13;;;;;;;10.45;5.78;;;;;;;;;;5051399;28;20056;-61
2023/04/07 10:21:42;;;;;;;9.93;5.90;;;;;;;;;;5052499;28;20543;-65
2023/04/07 10:24:19;;;;;;;9.23;5.70;;;;;;;;;;5052090;28;20053;-66
2023/04/07 10:26:50;;;;;;;10.10;5.90;;;;;;;;;;5052375;28;20141;-56
2023/04/07 10:29:18;;;;;;;11.57;5.93;;;;;;;;;;5051941;28;20060;-60
2023/04/07 10:31:47;;;;;;;10.85;6.28;;;;;;;;;;5051953;28;20114;-60
2023/04/07 10:34:14;;;;;;;11.80;6.85;;;;;;;;;;5052034;28;20049;-59
2023/04/07 10:37:08;;;;;;;11.55;6.63;;;;;;;;;;5051776;28;20045;-60
2023/04/07 10:39:36;;;;;;;10.77;6.40;;;;;;;;;;5050079;28;20056;-61
2023/04/07 10:42:03;;;;;;;10.38;6.40;;;;;;;;;;5052485;28;20144;-64
2023/04/07 10:44:50;;;;;;;13.63;7.13;;;;;;;;;;5051740;28;20490;-64
2023/04/07 10:47:18;;;;;;;11.40;6.70;;;;;;;;;;5049408;28;20083;-58
2023/04/07 10:50:17;;;;;;;11.23;7.07;;;;;;;;;;5051129;28;20487;-60
2023/04/07 10:52:44;;;;;;;12.13;7.50;;;;;;;;;;4970209;28;20055;-59
2023/04/07 10:55:32;;;;;;;12.05;7.35;;;;;;;;;;5033862;28;20052;-61
2023/04/07 10:58:20;;;;;;;9.90;6.15;;;;;;;;;;5051522;28;20037;-61
2023/04/07 11:01:19;;;;;;;12.38;6.82;;;;;;;;;;5043057;28;20056;-62
2023/04/07 11:03:56;;;;;;;11.07;6.13;;;;;;;;;;5045370;28;20494;-60
2023/04/07 11:06:23;;;;;;;11.52;6.20;;;;;;;;;;5051212;28;20052;-60
2023/04/07 11:08:51;;;;;;;10.93;7.45;;;;;;;;;;5051384;28;20081;-55
2023/04/07 11:11:35;;;;;;;10.77;6.10;;;;;;;;;;5051139;28;20123;-59
2023/04/07 11:14:02;;;;;;;11.00;6.47;;;;;;;;;;5044769;28;20044;-61
2023/04/07 11:16:37;;;;;;;10.90;6.38;;;;;;;;;;5050272;28;20064;-58
2023/04/07 11:19:05;;;;;;;10.77;6.45;;;;;;;;;;5050519;28;20041;-62
2023/04/07 11:21:32;;;;;;;9.98;6.05;;;;;;;;;;5051319;28;20072;-63
2023/04/07 11:23:59;;;;;;;37.85;17.83;;;;;;;;;;5051326;28;20045;-61
2023/04/07 11:26:26;;;;;;;62.85;24.55;;;;;;;;;;5051248;28;20110;-61
2023/04/07 11:28:54;;;;;;;28.60;14.10;;;;;;;;;;5050692;28;20067;-59
2023/04/07 11:31:24;;;;;;;11.55;7.22;;;;;;;;;;5051233;28;20052;-61
2023/04/07 11:33:56;;;;;;;10.68;6.53;;;;;;;;;;5044683;28;20045;-63
2023/04/07 11:36:32;;;;;;;13.10;7.38;;;;;;;;;;5050741;28;20051;-61
2023/04/07 11:39:00;;;;;;;11.90;6.72;;;;;;;;;;5048792;28;20049;-61
2023/04/07 11:41:29;;;;;;;10.68;6.57;;;;;;;;;;5050949;28;20132;-60
2023/04/07 11:44:06;;;;;;;10.75;6.47;;;;;;;;;;5051013;28;20063;-61
2023/04/07 11:46:34;;;;;;;10.05;6.82;;;;;;;;;;5050728;28;20075;-62
2023/04/07 11:49:12;;;;;;;12.50;7.40;;;;;;;;;;5050877;28;20048;-61
2023/04/07 11:51:41;;;;;;;10.63;6.63;;;;;;;;;;5050436;28;20239;-60
2023/04/07 11:54:08;;;;;;;12.10;6.78;;;;;;;;;;5051153;28;20041;-61
2023/04/07 11:56:44;;;;;;;9.88;5.88;;;;;;;;;;5051138;28;20059;-61
2023/04/07 11:59:19;;;;;;;10.95;6.45;;;;;;;;;;5050728;28;20136;-61
2023/04/07 12:01:46;;;;;;;11.18;6.65;;;;;;;;;;5051278;28;20119;-61
2023/04/07 12:04:14;;;;;;;10.38;6.75;;;;;;;;;;5050225;28;20088;-60
2023/04/07 12:06:43;;;;;;;11.65;6.43;;;;;;;;;;5051044;28;20575;-61
2023/04/07 12:09:26;;;;;;;13.18;8.20;;;;;;;;;;5050640;28;20453;-60
2023/04/07 12:11:53;;;;;;;11.73;6.88;;;;;;;;;;5050691;28;20052;-62
2023/04/07 12:14:20;;;;;;;10.63;6.95;;;;;;;;;;5051066;28;20045;-63
2023/04/07 12:16:47;;;;;;;9.32;6.70;;;;;;;;;;5050100;28;20091;-61
2023/04/07 12:19:13;;;;;;;12.00;6.97;;;;;;;;;;5050193;28;20114;-61
2023/04/07 12:21:43;;;;;;;10.52;6.22;;;;;;;;;;5050535;28;20052;-61
2023/04/07 12:24:10;;;;;;;13.30;6.70;;;;;;;;;;5050439;28;20053;-62
2023/04/07 12:26:37;;;;;;;10.32;6.43;;;;;;;;;;5050238;28;20111;-61
2023/04/07 12:29:04;;;;;;;9.82;6.38;;;;;;;;;;5050521;28;20061;-61
2023/04/07 12:31:31;;;;;;;10.13;5.95;;;;;;;;;;5050406;28;20056;-61
2023/04/07 12:33:58;;;;;;;9.82;5.85;;;;;;;;;;5049961;28;20049;-61
2023/04/07 12:36:25;;;;;;;9.38;6.00;;;;;;;;;;5049844;28;20064;-61
2023/04/07 12:38:53;;;;;;;9.43;5.65;;;;;;;;;;5049966;28;20048;-60
2023/04/07 12:41:20;;;;;;;9.68;6.55;;;;;;;;;;5049813;28;20076;-61
2023/04/07 12:43:47;;;;;;;8.60;5.13;;;;;;;;;;5060297;22;20049;-82
2023/04/07 12:46:14;;;;;;;11.68;7.20;;;;;;;;;;5032232;28;20049;-81
2023/04/07 12:48:40;;;;;;;13.45;7.20;;;;;;;;;;5032338;28;20128;-81
2023/04/07 12:51:07;;;;;;;10.43;6.90;;;;;;;;;;5032271;28;20447;-82
2023/04/07 12:53:34;;;;;;;10.45;6.60;;;;;;;;;;5031901;28;20049;-80
2023/04/07 12:56:02;;;;;;;10.13;5.97;;;;;;;;;;5032195;28;20046;-81
2023/04/07 12:58:29;;;;;;;10.27;6.90;;;;;;;;;;5032160;28;20140;-81
2023/04/07 13:00:57;;;;;;;10.93;7.03;;;;;;;;;;5032984;28;20050;-81
2023/04/07 13:03:23;;;;;;;11.20;7.25;;;;;;;;;;5031995;28;20048;-82
2023/04/07 13:05:53;;;;;;;9.27;6.78;;;;;;;;;;5031632;28;20069;-81
2023/04/07 13:08:20;;;;;;;11.52;7.05;;;;;;;;;;5032755;28;20049;-82
2023/04/07 13:10:47;;;;;;;13.50;7.10;;;;;;;;;;5031665;28;20051;-81
2023/04/07 13:13:15;;;;;;;11.13;7.63;;;;;;;;;;5032367;28;20081;-80
2023/04/07 13:15:41;;;;;;;13.45;7.82;;;;;;;;;;5032045;28;20760;-80
2023/04/07 13:18:08;;;;;;;10.52;7.28;;;;;;;;;;5031473;28;20463;-81
2023/04/07 13:20:35;;;;;;;12.18;7.40;;;;;;;;;;5031112;28;20049;-82
2023/04/07 13:23:01;;;;;;;14.95;6.90;;;;;;;;;;5032115;28;20072;-80
2023/04/07 13:25:28;;;;;;;11.38;7.15;;;;;;;;;;5032076;28;20205;-80
2023/04/07 13:27:55;;;;;;;12.25;7.57;;;;;;;;;;5031444;28;20428;-81
2023/04/07 13:30:23;;;;;;;11.48;7.25;;;;;;;;;;5031496;28;20049;-80
2023/04/07 13:32:50;;;;;;;10.63;6.28;;;;;;;;;;5031517;28;20095;-80
2023/04/07 13:35:18;;;;;;;12.88;7.47;;;;;;;;;;5031842;28;20488;-79
2023/04/07 13:37:47;;;;;;;11.48;7.20;;;;;;;;;;5031110;28;20284;-79
2023/04/07 13:40:14;;;;;;;10.18;6.25;;;;;;;;;;5031990;28;20107;-80
2023/04/07 13:42:41;;;;;;;10.90;6.53;;;;;;;;;;5031987;28;20049;-81
2023/04/07 13:45:08;;;;;;;10.98;6.28;;;;;;;;;;5037519;28;20152;-82
2023/04/07 13:47:36;;;;;;;13.00;8.18;;;;;;;;;;5036331;28;20117;-83
2023/04/07 13:50:04;;;;;;;12.57;7.47;;;;;;;;;;5037142;28;20531;-83
2023/04/07 13:52:33;;;;;;;9.38;6.32;;;;;;;;;;5035332;28;20052;-86
2023/04/07 13:55:00;;;;;;;10.40;5.97;;;;;;;;;;5036145;28;20042;-84
2023/04/07 13:57:30;;;;;;;10.98;6.38;;;;;;;;;;5037744;28;20133;-84
2023/04/07 13:59:57;;;;;;;10.10;6.15;;;;;;;;;;5037574;28;20095;-83
2023/04/07 14:02:24;;;;;;;9.82;6.65;;;;;;;;;;5037080;28;20060;-82
2023/04/07 14:04:53;;;;;;;9.85;6.03;;;;;;;;;;5038302;28;20492;-83
2023/04/07 14:07:20;;;;;;;11.38;7.03;;;;;;;;;;5038936;28;20045;-83
2023/04/07 14:09:47;;;;;;;10.38;6.20;;;;;;;;;;5053909;28;20161;-81
2023/04/07 14:12:14;;;;;;;10.98;6.95;;;;;;;;;;5057476;28;20042;-81
2023/04/07 14:14:41;;;;;;;11.48;6.85;;;;;;;;;;5040811;28;20080;-81
2023/04/07 14:17:07;;;;;;;11.73;6.70;;;;;;;;;;5038781;28;20037;-81
2023/04/07 14:19:34;;;;;;;12.13;7.32;;;;;;;;;;5038271;28;20073;-80
2023/04/07 14:22:02;;;;;;;9.65;5.97;;;;;;;;;;5035293;28;20525;-81
2023/04/07 14:24:29;;;;;;;10.60;5.43;;;;;;;;;;5038021;28;20072;-80
2023/04/07 14:26:56;;;;;;;10.48;6.35;;;;;;;;;;5038039;28;20053;-80
2023/04/07 14:29:22;;;;;;;8.25;5.22;;;;;;;;;;5036707;28;20053;-81
2023/04/07 14:31:50;;;;;;;9.23;5.53;;;;;;;;;;5039755;28;20064;-82
2023/04/07 14:34:17;;;;;;;9.20;5.50;;;;;;;;;;5038644;28;20053;-82
2023/04/07 14:36:53;;;;;;;10.57;6.45;;;;;;;;;;5037075;28;20072;-82
2023/04/07 14:39:21;;;;;;;10.13;5.90;;;;;;;;;;5037783;28;20052;-83